createdAt,value
2019-02-23T00:02:03.202Z,11.00
2019-02-23T00:07:18.655Z,9.87
2019-02-23T00:09:45.269Z,8.27
2019-02-23T00:12:11.844Z,11.20
2019-02-23T00:14:38.441Z,9.37
2019-02-23T00:17:05.008Z,9.23
2019-02-23T00:19:31.602Z,7.87
2019-02-23T00:21:58.188Z,11.03
2019-02-23T00:24:24.788Z,8.30
2019-02-23T00:26:51.363Z,8.87
2019-02-23T00:29:17.980Z,8.70
2019-02-23T00:31:44.567Z,9.47
2019-02-23T00:34:11.182Z,10.23
2019-02-23T00:36:37.762Z,9.20
2019-02-23T00:39:04.383Z,9.53
2019-02-23T00:41:30.965Z,9.53
2019-02-23T00:43:57.605Z,9.67
2019-02-23T00:46:24.187Z,8.60
2019-02-23T00:48:50.779Z,7.90
2019-02-23T00:51:17.348Z,7.77
2019-02-23T00:53:43.966Z,7.73
2019-02-23T00:56:10.536Z,8.30
2019-02-23T00:58:37.167Z,6.73
2019-02-23T01:01:03.760Z,8.27
2019-02-23T01:03:30.336Z,8.43
2019-02-23T01:05:56.935Z,7.67
2019-02-23T01:08:23.580Z,8.60
2019-02-23T01:10:57.682Z,8.13
2019-02-23T01:13:18.459Z,8.70
2019-02-23T01:15:45.031Z,8.80
2019-02-23T01:18:11.601Z,7.97
2019-02-23T01:20:38.191Z,8.90
2019-02-23T01:23:04.764Z,7.30
2019-02-23T01:25:31.333Z,9.00
2019-02-23T01:27:57.909Z,9.37
2019-02-23T01:30:25.996Z,9.13
2019-02-23T01:32:52.707Z,9.57
2019-02-23T01:35:19.286Z,9.57
2019-02-23T01:37:45.872Z,10.07
2019-02-23T01:40:12.440Z,9.10
2019-02-23T01:42:39.019Z,8.37
2019-02-23T01:45:05.593Z,9.50
2019-02-23T01:47:32.156Z,9.20
2019-02-23T01:49:59.358Z,8.03
2019-02-23T01:52:26.106Z,9.00
2019-02-23T01:54:52.679Z,7.93
2019-02-23T01:57:19.337Z,8.00
2019-02-23T01:59:45.918Z,10.63
2019-02-23T02:02:12.495Z,13.77
2019-02-23T02:04:39.059Z,17.63
2019-02-23T02:07:05.634Z,14.50
2019-02-23T02:09:32.212Z,11.73
2019-02-23T02:11:58.872Z,12.60
2019-02-23T02:14:25.573Z,11.23
2019-02-23T02:16:52.197Z,8.73
2019-02-23T02:19:18.811Z,9.13
2019-02-23T02:21:45.377Z,8.70
2019-02-23T02:24:11.980Z,9.90
2019-02-23T02:26:38.554Z,8.57
2019-02-23T02:29:05.171Z,8.40
2019-02-23T02:31:31.751Z,8.10
2019-02-23T02:33:58.324Z,9.30
2019-02-23T02:36:24.901Z,8.40
2019-02-23T02:38:51.506Z,8.37
2019-02-23T02:41:18.124Z,7.43
2019-02-23T02:43:44.687Z,8.07
2019-02-23T02:46:11.295Z,9.27
2019-02-23T02:48:37.866Z,9.40
2019-02-23T02:51:04.475Z,8.23
2019-02-23T02:53:31.050Z,8.70
2019-02-23T02:55:57.658Z,9.43
2019-02-23T02:58:24.240Z,9.10
2019-02-23T03:00:50.825Z,10.57
2019-02-23T03:03:17.406Z,9.37
2019-02-23T03:05:44.029Z,8.40
2019-02-23T03:08:10.599Z,9.53
2019-02-23T03:10:37.214Z,7.93
2019-02-23T03:13:03.840Z,7.67
2019-02-23T03:15:30.489Z,8.33
2019-02-23T03:17:57.065Z,8.00
2019-02-23T03:20:35.931Z,7.27
2019-02-23T03:22:52.021Z,7.77
2019-02-23T03:25:18.634Z,7.43
2019-02-23T03:27:45.203Z,8.27
2019-02-23T03:30:11.851Z,7.63
2019-02-23T03:32:38.675Z,6.63
2019-02-23T03:35:05.299Z,6.03
2019-02-23T03:37:31.860Z,6.57
2019-02-23T03:39:58.471Z,6.73
2019-02-23T03:42:25.038Z,6.97
2019-02-23T03:44:51.681Z,7.33
2019-02-23T03:47:18.267Z,6.90
2019-02-23T03:49:44.976Z,6.80
2019-02-23T03:52:11.545Z,7.87
2019-02-23T03:54:38.163Z,6.60
2019-02-23T03:57:04.732Z,6.93
2019-02-23T03:59:31.297Z,8.10
2019-02-23T04:01:57.878Z,8.37
2019-02-23T04:04:24.444Z,7.33
2019-02-23T04:06:51.014Z,6.30
2019-02-23T04:09:17.586Z,6.87
2019-02-23T04:11:44.166Z,8.67
2019-02-23T04:14:10.751Z,8.07
2019-02-23T04:16:37.317Z,6.53
2019-02-23T04:19:03.899Z,7.83
2019-02-23T04:21:30.468Z,7.57
2019-02-23T04:23:57.038Z,6.93
2019-02-23T04:26:23.606Z,8.10
2019-02-23T04:28:50.186Z,7.27
2019-02-23T04:31:16.752Z,8.87
2019-02-23T04:33:43.327Z,6.87
2019-02-23T04:36:09.976Z,7.50
2019-02-23T04:38:36.560Z,5.90
2019-02-23T04:41:03.135Z,6.90
2019-02-23T04:43:29.714Z,6.37
2019-02-23T04:45:56.282Z,7.00
2019-02-23T04:48:22.879Z,6.63
2019-02-23T04:50:49.614Z,6.90
2019-02-23T04:53:16.175Z,7.37
2019-02-23T04:55:42.748Z,7.40
2019-02-23T04:58:09.325Z,6.67
2019-02-23T05:00:35.902Z,8.00
2019-02-23T05:03:02.476Z,10.33
2019-02-23T05:05:29.051Z,10.07
2019-02-23T05:07:55.626Z,9.33
2019-02-23T05:10:22.208Z,8.47
2019-02-23T05:12:48.778Z,9.30
2019-02-23T05:15:15.355Z,10.17
2019-02-23T05:17:41.936Z,12.43
2019-02-23T05:20:08.524Z,12.37
2019-02-23T05:22:35.101Z,12.73
2019-02-23T05:25:01.707Z,14.83
2019-02-23T05:27:28.361Z,14.43
2019-02-23T05:29:54.931Z,13.87
2019-02-23T05:32:21.622Z,15.40
2019-02-23T05:34:48.304Z,15.13
2019-02-23T05:37:14.976Z,12.17
2019-02-23T05:39:41.558Z,13.30
2019-02-23T05:42:08.160Z,11.87
2019-02-23T05:44:34.740Z,10.83
2019-02-23T05:47:01.398Z,12.13
2019-02-23T05:49:27.976Z,10.50
2019-02-23T05:51:54.587Z,9.93
2019-02-23T05:54:21.209Z,10.07
2019-02-23T05:56:47.873Z,9.63
2019-02-23T05:59:14.443Z,11.33
2019-02-23T06:01:41.060Z,13.17
2019-02-23T06:04:07.635Z,13.07
2019-02-23T06:06:34.234Z,11.77
2019-02-23T06:09:00.816Z,12.57
2019-02-23T06:11:27.471Z,12.67
2019-02-23T06:13:54.042Z,18.40
2019-02-23T06:16:20.649Z,15.00
2019-02-23T06:18:47.213Z,16.53
2019-02-23T06:21:13.846Z,17.83
2019-02-23T06:23:40.420Z,22.23
2019-02-23T06:26:07.046Z,20.03
2019-02-23T06:28:33.671Z,24.47
2019-02-23T06:31:00.272Z,19.83
2019-02-23T06:33:26.851Z,16.50
2019-02-23T06:35:53.445Z,18.23
2019-02-23T06:38:20.024Z,16.23
2019-02-23T06:40:46.647Z,15.50
2019-02-23T06:43:13.264Z,15.67
2019-02-23T06:45:39.899Z,15.87
2019-02-23T06:48:06.473Z,16.43
2019-02-23T06:50:33.047Z,13.80
2019-02-23T06:52:59.627Z,14.90
2019-02-23T06:55:26.203Z,12.77
2019-02-23T06:57:52.777Z,14.40
2019-02-23T07:00:19.359Z,12.03
2019-02-23T07:02:45.940Z,13.00
2019-02-23T07:05:12.531Z,14.07
2019-02-23T07:07:39.125Z,13.10
2019-02-23T07:10:05.698Z,11.87
2019-02-23T07:12:32.276Z,14.83
2019-02-23T07:14:58.847Z,13.83
2019-02-23T07:17:25.435Z,11.93
2019-02-23T07:19:52.003Z,13.37
2019-02-23T07:22:18.624Z,14.20
2019-02-23T07:24:45.232Z,12.87
2019-02-23T07:27:11.808Z,12.00
2019-02-23T07:29:38.382Z,11.37
2019-02-23T07:32:04.960Z,11.30
2019-02-23T07:34:31.555Z,11.40
2019-02-23T07:36:58.194Z,12.67
2019-02-23T07:39:24.854Z,12.60
2019-02-23T07:41:51.464Z,11.33
2019-02-23T07:44:18.074Z,10.03
2019-02-23T07:46:44.649Z,9.50
2019-02-23T07:49:11.222Z,9.53
2019-02-23T07:51:37.810Z,7.90
2019-02-23T07:54:04.379Z,7.47
2019-02-23T07:56:30.996Z,6.57
2019-02-23T07:58:57.574Z,5.97
2019-02-23T08:01:24.192Z,6.73
2019-02-23T08:03:50.775Z,5.30
2019-02-23T08:06:17.397Z,6.20
2019-02-23T08:08:43.963Z,4.63
2019-02-23T08:11:10.575Z,5.60
2019-02-23T08:13:37.153Z,6.90
2019-02-23T08:16:03.731Z,6.10
2019-02-23T08:18:30.302Z,4.00
2019-02-23T08:20:56.873Z,5.03
2019-02-23T08:23:23.449Z,5.70
2019-02-23T08:25:50.020Z,5.07
2019-02-23T08:28:16.599Z,5.07
2019-02-23T08:30:43.156Z,4.00
2019-02-23T08:33:09.742Z,5.30
2019-02-23T08:35:36.307Z,6.30
2019-02-23T08:38:02.884Z,5.37
2019-02-23T08:40:29.524Z,5.33
2019-02-23T08:42:56.134Z,6.07
2019-02-23T08:45:23.702Z,5.07
2019-02-23T08:47:50.307Z,5.50
2019-02-23T08:50:16.890Z,5.43
2019-02-23T08:52:49.247Z,4.57
2019-02-23T08:55:11.784Z,4.67
2019-02-23T08:57:38.390Z,5.00
2019-02-23T09:00:04.956Z,6.07
2019-02-23T09:02:31.564Z,4.50
2019-02-23T09:04:58.168Z,4.90
2019-02-23T09:07:24.816Z,4.60
2019-02-23T09:09:51.396Z,3.30
2019-02-23T09:12:18.013Z,3.77
2019-02-23T09:14:44.580Z,4.67
2019-02-23T09:17:11.225Z,5.03
2019-02-23T09:19:40.101Z,3.87
2019-02-23T09:22:06.779Z,4.07
2019-02-23T09:24:35.602Z,2.80
2019-02-23T09:27:02.204Z,2.60
2019-02-23T09:29:28.833Z,2.77
2019-02-23T09:31:55.435Z,3.03
2019-02-23T09:34:22.030Z,3.03
2019-02-23T09:36:48.671Z,3.40
2019-02-23T09:39:17.148Z,4.07
2019-02-23T09:41:43.736Z,3.47
2019-02-23T09:44:10.319Z,4.70
2019-02-23T09:46:36.921Z,4.83
2019-02-23T09:49:03.493Z,3.77
2019-02-23T09:51:30.078Z,3.40
2019-02-23T09:53:56.655Z,3.57
2019-02-23T09:56:23.225Z,3.37
2019-02-23T09:58:49.795Z,4.47
2019-02-23T10:01:16.380Z,3.47
2019-02-23T10:03:42.950Z,3.00
2019-02-23T10:06:09.513Z,2.70
2019-02-23T10:08:36.101Z,3.12
2019-02-23T10:11:02.678Z,5.40
2019-02-23T10:13:29.255Z,4.45
2019-02-23T10:15:55.838Z,6.33
2019-02-23T10:18:22.424Z,11.08
2019-02-23T10:20:48.983Z,4.97
2019-02-23T10:23:21.913Z,4.60
2019-02-23T10:25:43.856Z,4.40
2019-02-23T10:28:10.433Z,4.92
2019-02-23T10:30:37.026Z,6.97
2019-02-23T10:33:03.606Z,8.65
2019-02-23T10:35:30.181Z,9.53
2019-02-23T10:37:56.759Z,5.50
2019-02-23T10:40:23.327Z,4.20
2019-02-23T10:42:49.923Z,4.33
2019-02-23T10:45:16.503Z,4.17
2019-02-23T10:47:43.077Z,3.50
2019-02-23T10:50:09.653Z,7.00
2019-02-23T10:52:36.264Z,4.53
2019-02-23T10:55:02.835Z,3.83
2019-02-23T10:57:29.450Z,4.90
2019-02-23T10:59:56.030Z,4.17
2019-02-23T11:02:22.638Z,2.98
2019-02-23T11:04:49.219Z,4.00
2019-02-23T11:07:15.815Z,3.60
2019-02-23T11:09:42.384Z,4.00
2019-02-23T11:12:08.997Z,4.95
2019-02-23T11:14:35.572Z,3.75
2019-02-23T11:17:02.145Z,7.17
2019-02-23T11:19:28.718Z,11.35
2019-02-23T11:21:55.898Z,5.25
2019-02-23T11:24:22.472Z,4.78
2019-02-23T11:26:49.051Z,4.55
2019-02-23T11:29:15.629Z,4.37
2019-02-23T11:31:42.208Z,4.28
2019-02-23T11:34:08.789Z,4.37
2019-02-23T11:36:35.369Z,5.20
2019-02-23T11:39:01.937Z,4.03
2019-02-23T11:41:28.507Z,4.00
2019-02-23T11:43:55.113Z,3.65
2019-02-23T11:46:21.679Z,4.72
2019-02-23T11:48:48.254Z,3.95
2019-02-23T11:51:14.832Z,3.27
2019-02-23T11:53:41.409Z,4.08
2019-02-23T11:56:07.978Z,3.60
2019-02-23T11:58:34.559Z,3.60
2019-02-23T12:01:01.131Z,3.72
2019-02-23T12:03:27.715Z,3.77
2019-02-23T12:05:54.302Z,4.10
2019-02-23T12:08:20.885Z,4.22
2019-02-23T12:10:47.453Z,3.58
2019-02-23T12:13:14.093Z,3.70
2019-02-23T12:15:40.677Z,3.50
2019-02-23T12:18:07.258Z,3.60
2019-02-23T12:20:33.828Z,5.53
2019-02-23T12:23:00.428Z,4.92
2019-02-23T12:25:27.016Z,5.25
2019-02-23T12:27:53.625Z,5.05
2019-02-23T12:30:20.212Z,5.12
2019-02-23T12:32:46.817Z,4.03
2019-02-23T12:35:13.385Z,3.55
2019-02-23T12:37:39.958Z,6.80
2019-02-23T12:40:06.542Z,7.95
2019-02-23T12:42:33.112Z,12.35
2019-02-23T12:44:59.702Z,6.67
2019-02-23T12:47:26.275Z,4.42
2019-02-23T12:49:52.844Z,4.50
2019-02-23T12:52:19.419Z,5.50
2019-02-23T12:54:46.000Z,4.12
2019-02-23T12:57:12.570Z,3.90
2019-02-23T12:59:39.146Z,4.62
2019-02-23T13:02:05.727Z,5.65
2019-02-23T13:04:32.302Z,4.58
2019-02-23T13:06:58.877Z,4.53
2019-02-23T13:09:25.496Z,11.95
2019-02-23T13:11:52.083Z,11.08
2019-02-23T13:14:18.731Z,9.08
2019-02-23T13:16:45.299Z,5.30
2019-02-23T13:19:11.915Z,5.00
2019-02-23T13:21:38.482Z,4.00
2019-02-23T13:24:05.074Z,4.12
2019-02-23T13:26:31.657Z,4.72
2019-02-23T13:28:58.239Z,4.65
2019-02-23T13:31:24.825Z,11.35
2019-02-23T13:33:51.397Z,7.08
2019-02-23T13:36:17.995Z,5.92
2019-02-23T13:38:44.571Z,7.70
2019-02-23T13:41:11.169Z,7.67
2019-02-23T13:43:37.744Z,7.78
2019-02-23T13:46:04.359Z,10.50
2019-02-23T13:48:30.947Z,14.18
2019-02-23T13:50:57.525Z,14.33
2019-02-23T13:53:24.095Z,6.90
2019-02-23T13:55:50.677Z,6.20
2019-02-23T13:58:18.959Z,6.42
2019-02-23T14:00:45.631Z,6.25
2019-02-23T14:03:12.243Z,6.92
2019-02-23T14:05:38.830Z,7.30
2019-02-23T14:08:05.425Z,9.45
2019-02-23T14:10:32.006Z,6.95
2019-02-23T14:12:58.580Z,7.40
2019-02-23T14:15:25.161Z,6.47
2019-02-23T14:17:51.758Z,6.60
2019-02-23T14:20:18.333Z,6.17
2019-02-23T14:22:44.941Z,5.92
2019-02-23T14:25:11.510Z,11.22
2019-02-23T14:27:38.192Z,15.65
2019-02-23T14:30:04.863Z,17.85
2019-02-23T14:32:31.439Z,33.38
2019-02-23T14:34:58.016Z,14.15
2019-02-23T14:37:24.592Z,24.30
2019-02-23T14:39:51.218Z,111.15
2019-02-23T14:42:17.875Z,36.80
2019-02-23T14:44:44.561Z,12.30
2019-02-23T14:47:11.147Z,11.85
2019-02-23T14:49:37.728Z,8.35
2019-02-23T14:52:04.316Z,7.42
2019-02-23T14:54:30.902Z,8.13
2019-02-23T14:56:57.504Z,7.72
2019-02-23T14:59:24.191Z,7.47
2019-02-23T15:01:50.947Z,6.92
2019-02-23T15:04:18.115Z,7.10
2019-02-23T15:06:44.719Z,7.20
2019-02-23T15:09:11.314Z,5.92
2019-02-23T15:11:37.929Z,8.88
2019-02-23T15:14:04.501Z,7.65
2019-02-23T15:16:31.082Z,7.85
2019-02-23T15:18:57.666Z,7.25
2019-02-23T15:21:24.248Z,6.42
2019-02-23T15:23:50.833Z,9.20
2019-02-23T15:26:17.417Z,6.78
2019-02-23T15:28:43.990Z,7.12
2019-02-23T15:31:10.563Z,8.15
2019-02-23T15:33:37.168Z,7.42
2019-02-23T15:36:04.097Z,7.35
2019-02-23T15:38:30.751Z,7.10
2019-02-23T15:40:57.341Z,6.65
2019-02-23T15:43:24.020Z,8.40
2019-02-23T15:45:50.727Z,7.90
2019-02-23T15:48:17.370Z,7.40
2019-02-23T15:50:43.983Z,6.92
2019-02-23T15:53:10.633Z,7.80
2019-02-23T15:55:37.258Z,8.10
2019-02-23T15:58:03.832Z,11.93
2019-02-23T16:00:30.455Z,12.58
2019-02-23T16:02:57.030Z,9.75
2019-02-23T16:05:23.590Z,8.88
2019-02-23T16:07:50.162Z,10.53
2019-02-23T16:10:17.936Z,9.65
2019-02-23T16:12:45.475Z,10.05
2019-02-23T16:15:12.097Z,13.45
2019-02-23T16:17:38.718Z,16.17
2019-02-23T16:20:05.306Z,15.32
2019-02-23T16:22:31.880Z,11.08
2019-02-23T16:24:58.493Z,13.10
2019-02-23T16:27:25.065Z,11.83
2019-02-23T16:29:51.655Z,11.30
2019-02-23T16:32:18.224Z,13.75
2019-02-23T16:34:44.821Z,13.18
2019-02-23T16:37:11.394Z,13.78
2019-02-23T16:39:40.471Z,12.33
2019-02-23T16:42:06.368Z,11.28
2019-02-23T16:44:32.980Z,18.13
2019-02-23T16:46:59.594Z,14.33
2019-02-23T16:49:26.179Z,14.47
2019-02-23T16:51:52.765Z,14.27
2019-02-23T16:54:20.333Z,14.37
2019-02-23T16:56:46.909Z,20.03
2019-02-23T16:59:13.520Z,23.17
2019-02-23T17:01:40.096Z,19.43
2019-02-23T17:04:06.675Z,20.33
2019-02-23T17:06:33.384Z,18.40
2019-02-23T17:09:00.048Z,18.60
2019-02-23T17:11:26.657Z,24.87
2019-02-23T17:13:53.237Z,26.47
2019-02-23T17:16:19.809Z,25.33
2019-02-23T17:18:46.384Z,28.00
2019-02-23T17:21:13.002Z,22.73
2019-02-23T17:23:39.617Z,21.70
2019-02-23T17:26:06.233Z,21.57
2019-02-23T17:28:32.952Z,22.27
2019-02-23T17:30:59.531Z,21.80
2019-02-23T17:33:27.980Z,20.60
2019-02-23T17:35:54.474Z,18.20
2019-02-23T17:38:21.041Z,17.37
2019-02-23T17:43:31.903Z,19.40
2019-02-23T17:45:58.479Z,20.83
2019-02-23T17:48:25.173Z,19.17
2019-02-23T17:50:51.756Z,28.07
2019-02-23T17:53:18.323Z,29.00
2019-02-23T17:55:44.895Z,21.60
2019-02-23T17:58:11.496Z,20.97
2019-02-23T18:00:38.080Z,20.27
2019-02-23T18:03:04.648Z,24.50
2019-02-23T18:05:31.223Z,30.27
2019-02-23T18:07:57.838Z,23.67
2019-02-23T18:10:24.478Z,27.20
2019-02-23T18:12:51.104Z,22.97
2019-02-23T18:15:17.681Z,22.50
2019-02-23T18:17:44.257Z,21.23
2019-02-23T18:20:11.106Z,22.63
2019-02-23T18:22:38.188Z,26.33
2019-02-23T18:25:04.835Z,26.93
2019-02-23T18:27:31.491Z,44.33
2019-02-23T18:29:58.366Z,40.93
2019-02-23T18:32:25.454Z,38.13
2019-02-23T18:34:53.795Z,32.37
2019-02-23T18:37:20.427Z,33.70
2019-02-23T18:39:47.032Z,31.10
2019-02-23T18:42:13.606Z,32.17
2019-02-23T18:44:40.191Z,32.87
2019-02-23T18:47:06.813Z,32.93
2019-02-23T18:49:33.415Z,32.13
2019-02-23T18:52:00.043Z,39.33
2019-02-23T18:54:26.626Z,41.37
2019-02-23T18:56:53.191Z,41.43
2019-02-23T18:59:19.774Z,44.43
2019-02-23T19:01:46.390Z,38.73
2019-02-23T19:04:12.966Z,35.50
2019-02-23T19:06:39.577Z,32.37
2019-02-23T19:09:06.147Z,37.60
2019-02-23T19:11:32.762Z,36.10
2019-02-23T19:13:59.335Z,36.07
2019-02-23T19:16:25.925Z,37.73
2019-02-23T19:18:52.505Z,34.33
2019-02-23T19:21:19.086Z,35.23
2019-02-23T19:23:45.658Z,37.47
2019-02-23T19:26:12.263Z,37.93
2019-02-23T19:28:43.165Z,41.53
2019-02-23T19:31:07.195Z,38.80
2019-02-23T19:33:33.769Z,36.33
2019-02-23T19:36:00.378Z,33.43
2019-02-23T19:38:26.960Z,35.33
2019-02-23T19:40:53.559Z,36.60
2019-02-23T19:43:20.138Z,35.90
2019-02-23T19:45:46.730Z,37.50
2019-02-23T19:48:13.352Z,36.37
2019-02-23T19:50:40.418Z,35.77
2019-02-23T19:53:07.049Z,37.03
2019-02-23T19:55:33.815Z,35.50
2019-02-23T19:58:00.388Z,38.27
2019-02-23T20:00:27.067Z,31.50
2019-02-23T20:02:53.647Z,31.80
2019-02-23T20:05:20.228Z,34.53
2019-02-23T20:07:46.805Z,33.20
2019-02-23T20:10:13.383Z,32.53
2019-02-23T20:12:39.956Z,34.70
2019-02-23T20:15:06.538Z,34.27
2019-02-23T20:17:33.109Z,34.97
2019-02-23T20:19:59.676Z,35.50
2019-02-23T20:22:26.254Z,38.57
2019-02-23T20:24:52.830Z,40.13
2019-02-23T20:27:19.418Z,38.47
2019-02-23T20:29:46.102Z,43.10
2019-02-23T20:32:12.719Z,42.60
2019-02-23T20:34:39.328Z,33.80
2019-02-23T20:37:05.912Z,32.70
2019-02-23T20:39:32.572Z,30.87
2019-02-23T20:41:59.156Z,32.80
2019-02-23T20:44:25.728Z,33.03
2019-02-23T20:46:52.300Z,34.63
2019-02-23T20:49:18.907Z,34.67
2019-02-23T20:51:45.583Z,27.73
2019-02-23T20:54:12.157Z,31.07
2019-02-23T20:56:38.778Z,29.77
2019-02-23T20:59:05.394Z,29.27
2019-02-23T21:01:32.030Z,26.67
2019-02-23T21:03:58.660Z,27.20
2019-02-23T21:06:25.264Z,26.20
2019-02-23T21:08:51.836Z,27.03
2019-02-23T21:11:18.523Z,26.43
2019-02-23T21:13:45.131Z,27.50
2019-02-23T21:16:11.743Z,26.37
2019-02-23T21:18:38.330Z,26.27
2019-02-23T21:21:04.942Z,26.30
2019-02-23T21:23:31.515Z,25.63
2019-02-23T21:25:58.097Z,25.97
2019-02-23T21:28:24.670Z,30.97
2019-02-23T21:30:51.244Z,26.10
2019-02-23T21:33:17.817Z,27.90
2019-02-23T21:35:44.498Z,30.50
2019-02-23T21:38:11.081Z,30.13
2019-02-23T21:40:37.649Z,30.47
2019-02-23T21:43:04.228Z,28.97
2019-02-23T21:45:30.839Z,32.70
2019-02-23T21:47:57.461Z,36.33
2019-02-23T21:50:24.040Z,32.17
2019-02-23T21:52:50.611Z,36.87
2019-02-23T21:55:17.195Z,33.33
2019-02-23T21:57:43.787Z,31.27
2019-02-23T22:00:10.361Z,31.80
2019-02-23T22:02:37.004Z,28.90
2019-02-23T22:05:11.712Z,31.73
2019-02-23T22:07:31.915Z,30.30
2019-02-23T22:09:58.867Z,31.63
2019-02-23T22:12:25.533Z,29.23
2019-02-23T22:14:52.178Z,26.57
2019-02-23T22:17:19.303Z,28.83
2019-02-23T22:19:45.880Z,29.30
2019-02-23T22:22:12.473Z,27.43
2019-02-23T22:24:41.587Z,29.13
2019-02-23T22:27:08.937Z,25.97
2019-02-23T22:29:35.642Z,29.57
2019-02-23T22:32:02.227Z,39.63
2019-02-23T22:34:28.803Z,38.20
2019-02-23T22:36:55.406Z,48.47
2019-02-23T22:39:21.980Z,37.87
2019-02-23T22:41:49.845Z,40.63
2019-02-23T22:44:16.661Z,40.97
2019-02-23T22:46:43.244Z,37.73
2019-02-23T22:49:09.828Z,41.57
2019-02-23T22:51:36.416Z,42.33
2019-02-23T22:54:02.987Z,41.60
2019-02-23T22:56:29.567Z,38.20
2019-02-23T22:58:56.145Z,34.70
2019-02-23T23:01:22.827Z,34.47
2019-02-23T23:03:49.419Z,36.37
2019-02-23T23:06:15.985Z,37.67
2019-02-23T23:08:42.575Z,35.07
2019-02-23T23:11:09.152Z,32.97
2019-02-23T23:13:35.743Z,31.10
2019-02-23T23:16:02.317Z,31.97
2019-02-23T23:18:28.890Z,32.77
2019-02-23T23:20:55.477Z,34.50
2019-02-23T23:23:22.057Z,36.10
2019-02-23T23:25:48.624Z,34.17
2019-02-23T23:28:15.200Z,34.10
2019-02-23T23:30:41.780Z,33.07
2019-02-23T23:33:08.385Z,34.10
2019-02-23T23:35:34.966Z,30.83
2019-02-23T23:38:01.567Z,32.73
2019-02-23T23:40:28.136Z,30.77
2019-02-23T23:42:58.153Z,31.70
2019-02-23T23:45:23.057Z,33.37
2019-02-23T23:47:49.651Z,30.73
2019-02-23T23:50:16.228Z,29.27
2019-02-23T23:52:42.839Z,28.20
2019-02-23T23:55:09.402Z,30.27
2019-02-23T23:57:36.024Z,32.03
